sensor_id;sensor_type;location;lat;lon;timestamp;P1;durP1;ratioP1;P2;durP2;ratioP2
351;SDS011;164;50.784;6.496;2023-06-26T00:01:39;6.80;;;6.05;;
351;SDS011;164;50.784;6.496;2023-06-26T00:04:07;7.50;;;7.10;;
351;SDS011;164;50.784;6.496;2023-06-26T00:06:39;6.63;;;6.13;;
351;SDS011;164;50.784;6.496;2023-06-26T00:09:07;6.18;;;5.88;;
351;SDS011;164;50.784;6.496;2023-06-26T00:11:34;6.47;;;6.07;;
351;SDS011;164;50.784;6.496;2023-06-26T00:14:03;5.50;;;5.20;;
351;SDS011;164;50.784;6.496;2023-06-26T00:16:30;6.80;;;6.40;;
351;SDS011;164;50.784;6.496;2023-06-26T00:18:58;6.28;;;5.50;;
351;SDS011;164;50.784;6.496;2023-06-26T00:21:25;6.70;;;6.30;;
351;SDS011;164;50.784;6.496;2023-06-26T00:23:52;6.53;;;6.13;;
351;SDS011;164;50.784;6.496;2023-06-26T00:26:20;6.38;;;5.95;;
351;SDS011;164;50.784;6.496;2023-06-26T00:28:47;7.13;;;6.60;;
351;SDS011;164;50.784;6.496;2023-06-26T00:31:15;7.05;;;6.57;;
351;SDS011;164;50.784;6.496;2023-06-26T00:33:43;6.20;;;5.90;;
351;SDS011;164;50.784;6.496;2023-06-26T00:36:10;6.90;;;6.50;;
351;SDS011;164;50.784;6.496;2023-06-26T00:38:37;6.13;;;5.82;;
351;SDS011;164;50.784;6.496;2023-06-26T00:41:05;7.80;;;6.38;;
351;SDS011;164;50.784;6.496;2023-06-26T00:43:37;6.82;;;5.95;;
351;SDS011;164;50.784;6.496;2023-06-26T00:46:04;6.63;;;6.22;;
351;SDS011;164;50.784;6.496;2023-06-26T00:48:33;5.57;;;5.28;;
351;SDS011;164;50.784;6.496;2023-06-26T00:51:00;6.80;;;6.40;;
351;SDS011;164;50.784;6.496;2023-06-26T00:53:28;7.07;;;5.82;;
351;SDS011;164;50.784;6.496;2023-06-26T00:55:55;5.85;;;5.57;;
351;SDS011;164;50.784;6.496;2023-06-26T00:58:23;6.50;;;6.10;;
351;SDS011;164;50.784;6.496;2023-06-26T01:00:51;6.70;;;6.30;;
351;SDS011;164;50.784;6.496;2023-06-26T01:03:18;5.38;;;5.07;;
351;SDS011;164;50.784;6.496;2023-06-26T01:05:47;6.47;;;6.07;;
351;SDS011;164;50.784;6.496;2023-06-26T01:08:14;6.28;;;5.93;;
351;SDS011;164;50.784;6.496;2023-06-26T01:10:42;5.80;;;5.50;;
351;SDS011;164;50.784;6.496;2023-06-26T01:13:09;6.40;;;6.00;;
351;SDS011;164;50.784;6.496;2023-06-26T01:15:38;6.30;;;5.95;;
351;SDS011;164;50.784;6.496;2023-06-26T01:18:06;6.85;;;6.45;;
351;SDS011;164;50.784;6.496;2023-06-26T01:20:35;6.43;;;6.03;;
351;SDS011;164;50.784;6.496;2023-06-26T01:23:07;7.15;;;6.75;;
351;SDS011;164;50.784;6.496;2023-06-26T01:25:39;6.00;;;5.70;;
351;SDS011;164;50.784;6.496;2023-06-26T01:28:10;6.35;;;5.97;;
351;SDS011;164;50.784;6.496;2023-06-26T01:30:39;5.85;;;5.55;;
351;SDS011;164;50.784;6.496;2023-06-26T01:33:06;6.85;;;6.45;;
351;SDS011;164;50.784;6.496;2023-06-26T01:35:34;5.53;;;5.22;;
351;SDS011;164;50.784;6.496;2023-06-26T01:38:12;6.45;;;6.05;;
351;SDS011;164;50.784;6.496;2023-06-26T01:40:40;6.35;;;5.97;;
351;SDS011;164;50.784;6.496;2023-06-26T01:43:10;7.03;;;6.63;;
351;SDS011;164;50.784;6.496;2023-06-26T01:45:43;6.53;;;6.10;;
351;SDS011;164;50.784;6.496;2023-06-26T01:48:11;5.85;;;5.60;;
351;SDS011;164;50.784;6.496;2023-06-26T01:50:39;6.75;;;6.35;;
351;SDS011;164;50.784;6.496;2023-06-26T01:53:09;6.55;;;6.15;;
351;SDS011;164;50.784;6.496;2023-06-26T01:55:40;5.82;;;5.53;;
351;SDS011;164;50.784;6.496;2023-06-26T01:58:08;6.00;;;5.70;;
351;SDS011;164;50.784;6.496;2023-06-26T02:00:36;7.00;;;6.60;;
351;SDS011;164;50.784;6.496;2023-06-26T02:03:05;6.18;;;5.88;;
351;SDS011;164;50.784;6.496;2023-06-26T02:05:32;6.70;;;6.30;;
351;SDS011;164;50.784;6.496;2023-06-26T02:07:59;6.72;;;6.32;;
351;SDS011;164;50.784;6.496;2023-06-26T02:10:28;6.22;;;5.90;;
351;SDS011;164;50.784;6.496;2023-06-26T02:12:55;6.40;;;5.97;;
351;SDS011;164;50.784;6.496;2023-06-26T02:15:22;6.28;;;5.93;;
351;SDS011;164;50.784;6.496;2023-06-26T02:17:50;5.80;;;5.50;;
351;SDS011;164;50.784;6.496;2023-06-26T02:20:18;6.40;;;5.93;;
351;SDS011;164;50.784;6.496;2023-06-26T02:22:46;5.97;;;5.68;;
351;SDS011;164;50.784;6.496;2023-06-26T02:25:13;5.90;;;5.50;;
351;SDS011;164;50.784;6.496;2023-06-26T02:27:41;6.25;;;5.93;;
351;SDS011;164;50.784;6.496;2023-06-26T02:30:09;5.40;;;5.10;;
351;SDS011;164;50.784;6.496;2023-06-26T02:32:36;5.63;;;5.32;;
351;SDS011;164;50.784;6.496;2023-06-26T02:35:04;5.53;;;5.22;;
351;SDS011;164;50.784;6.496;2023-06-26T02:37:33;5.55;;;5.25;;
351;SDS011;164;50.784;6.496;2023-06-26T02:40:00;6.30;;;5.95;;
351;SDS011;164;50.784;6.496;2023-06-26T02:42:28;6.07;;;5.78;;
351;SDS011;164;50.784;6.496;2023-06-26T02:44:55;6.47;;;6.07;;
351;SDS011;164;50.784;6.496;2023-06-26T02:47:23;6.97;;;6.28;;
351;SDS011;164;50.784;6.496;2023-06-26T02:49:50;6.55;;;5.60;;
351;SDS011;164;50.784;6.496;2023-06-26T02:52:17;9.65;;;6.43;;
351;SDS011;164;50.784;6.496;2023-06-26T02:54:46;5.82;;;5.53;;
351;SDS011;164;50.784;6.496;2023-06-26T02:57:14;6.13;;;5.82;;
351;SDS011;164;50.784;6.496;2023-06-26T02:59:42;5.22;;;4.93;;
351;SDS011;164;50.784;6.496;2023-06-26T03:02:09;6.22;;;5.90;;
351;SDS011;164;50.784;6.496;2023-06-26T03:04:37;5.88;;;5.57;;
351;SDS011;164;50.784;6.496;2023-06-26T03:07:04;7.78;;;5.95;;
351;SDS011;164;50.784;6.496;2023-06-26T03:09:31;6.00;;;5.70;;
351;SDS011;164;50.784;6.496;2023-06-26T03:12:00;6.80;;;6.40;;
351;SDS011;164;50.784;6.496;2023-06-26T03:14:27;6.10;;;5.80;;
351;SDS011;164;50.784;6.496;2023-06-26T03:16:57;7.22;;;6.25;;
351;SDS011;164;50.784;6.496;2023-06-26T03:19:28;7.75;;;7.28;;
351;SDS011;164;50.784;6.496;2023-06-26T03:21:55;6.18;;;5.85;;
351;SDS011;164;50.784;6.496;2023-06-26T03:24:22;6.40;;;6.00;;
351;SDS011;164;50.784;6.496;2023-06-26T03:26:49;7.50;;;6.20;;
351;SDS011;164;50.784;6.496;2023-06-26T03:29:18;6.70;;;6.30;;
351;SDS011;164;50.784;6.496;2023-06-26T03:31:46;8.25;;;5.65;;
351;SDS011;164;50.784;6.496;2023-06-26T03:34:13;5.50;;;5.20;;
351;SDS011;164;50.784;6.496;2023-06-26T03:36:46;6.35;;;5.97;;
351;SDS011;164;50.784;6.496;2023-06-26T03:39:13;6.78;;;6.38;;
351;SDS011;164;50.784;6.496;2023-06-26T03:41:41;6.30;;;5.95;;
351;SDS011;164;50.784;6.496;2023-06-26T03:44:08;6.35;;;5.97;;
351;SDS011;164;50.784;6.496;2023-06-26T03:46:37;6.15;;;5.65;;
351;SDS011;164;50.784;6.496;2023-06-26T03:49:04;6.57;;;6.18;;
351;SDS011;164;50.784;6.496;2023-06-26T03:51:31;5.10;;;4.80;;
351;SDS011;164;50.784;6.496;2023-06-26T03:53:59;5.57;;;5.28;;
351;SDS011;164;50.784;6.496;2023-06-26T03:56:26;5.65;;;5.15;;
351;SDS011;164;50.784;6.496;2023-06-26T03:58:53;5.10;;;4.80;;
351;SDS011;164;50.784;6.496;2023-06-26T04:01:21;7.07;;;5.80;;
351;SDS011;164;50.784;6.496;2023-06-26T04:03:49;5.93;;;5.63;;
351;SDS011;164;50.784;6.496;2023-06-26T04:06:17;6.28;;;5.93;;
351;SDS011;164;50.784;6.496;2023-06-26T04:08:44;5.40;;;5.10;;
351;SDS011;164;50.784;6.496;2023-06-26T04:11:11;6.30;;;5.95;;
351;SDS011;164;50.784;6.496;2023-06-26T04:13:39;5.90;;;5.05;;
351;SDS011;164;50.784;6.496;2023-06-26T04:16:06;5.65;;;5.35;;
351;SDS011;164;50.784;6.496;2023-06-26T04:18:33;7.68;;;4.70;;
351;SDS011;164;50.784;6.496;2023-06-26T04:21:05;5.80;;;5.20;;
351;SDS011;164;50.784;6.496;2023-06-26T04:23:34;6.53;;;5.60;;
351;SDS011;164;50.784;6.496;2023-06-26T04:26:01;6.65;;;5.85;;
351;SDS011;164;50.784;6.496;2023-06-26T04:28:30;4.85;;;4.57;;
351;SDS011;164;50.784;6.496;2023-06-26T04:30:58;7.13;;;6.47;;
351;SDS011;164;50.784;6.496;2023-06-26T04:33:25;5.00;;;4.72;;
351;SDS011;164;50.784;6.496;2023-06-26T04:35:52;8.85;;;5.85;;
351;SDS011;164;50.784;6.496;2023-06-26T04:38:21;5.65;;;5.35;;
351;SDS011;164;50.784;6.496;2023-06-26T04:40:48;5.85;;;4.70;;
351;SDS011;164;50.784;6.496;2023-06-26T04:43:16;9.32;;;5.35;;
351;SDS011;164;50.784;6.496;2023-06-26T04:45:43;5.40;;;4.90;;
351;SDS011;164;50.784;6.496;2023-06-26T04:48:10;4.68;;;4.38;;
351;SDS011;164;50.784;6.496;2023-06-26T04:50:38;5.18;;;4.88;;
351;SDS011;164;50.784;6.496;2023-06-26T04:53:05;5.90;;;5.60;;
351;SDS011;164;50.784;6.496;2023-06-26T04:55:35;5.72;;;4.78;;
351;SDS011;164;50.784;6.496;2023-06-26T04:58:02;6.43;;;4.60;;
351;SDS011;164;50.784;6.496;2023-06-26T05:00:29;5.40;;;4.78;;
351;SDS011;164;50.784;6.496;2023-06-26T05:02:57;4.60;;;4.30;;
351;SDS011;164;50.784;6.496;2023-06-26T05:05:25;5.28;;;4.20;;
351;SDS011;164;50.784;6.496;2023-06-26T05:07:54;8.57;;;4.85;;
351;SDS011;164;50.784;6.496;2023-06-26T05:10:21;5.15;;;4.85;;
351;SDS011;164;50.784;6.496;2023-06-26T05:12:50;5.25;;;4.95;;
351;SDS011;164;50.784;6.496;2023-06-26T05:15:17;4.20;;;3.90;;
351;SDS011;164;50.784;6.496;2023-06-26T05:17:44;5.95;;;4.78;;
351;SDS011;164;50.784;6.496;2023-06-26T05:20:12;5.50;;;4.45;;
351;SDS011;164;50.784;6.496;2023-06-26T05:22:39;5.80;;;5.05;;
351;SDS011;164;50.784;6.496;2023-06-26T05:25:07;5.68;;;4.18;;
351;SDS011;164;50.784;6.496;2023-06-26T05:27:36;6.25;;;4.15;;
351;SDS011;164;50.784;6.496;2023-06-26T05:30:05;7.90;;;4.70;;
351;SDS011;164;50.784;6.496;2023-06-26T05:32:34;4.60;;;4.28;;
351;SDS011;164;50.784;6.496;2023-06-26T05:35:02;5.70;;;4.45;;
351;SDS011;164;50.784;6.496;2023-06-26T05:37:30;5.03;;;4.78;;
351;SDS011;164;50.784;6.496;2023-06-26T05:39:58;5.30;;;4.80;;
351;SDS011;164;50.784;6.496;2023-06-26T05:42:26;5.68;;;5.05;;
351;SDS011;164;50.784;6.496;2023-06-26T05:44:54;5.95;;;4.60;;
351;SDS011;164;50.784;6.496;2023-06-26T05:47:22;6.55;;;4.65;;
351;SDS011;164;50.784;6.496;2023-06-26T05:49:49;6.13;;;4.88;;
351;SDS011;164;50.784;6.496;2023-06-26T05:52:17;5.05;;;4.55;;
351;SDS011;164;50.784;6.496;2023-06-26T05:54:45;6.95;;;4.75;;
351;SDS011;164;50.784;6.496;2023-06-26T05:57:12;6.78;;;5.18;;
351;SDS011;164;50.784;6.496;2023-06-26T05:59:40;6.88;;;4.80;;
351;SDS011;164;50.784;6.496;2023-06-26T06:02:10;5.90;;;4.70;;
351;SDS011;164;50.784;6.496;2023-06-26T06:04:39;5.75;;;4.53;;
351;SDS011;164;50.784;6.496;2023-06-26T06:07:06;4.47;;;4.20;;
351;SDS011;164;50.784;6.496;2023-06-26T06:09:34;10.35;;;6.00;;
351;SDS011;164;50.784;6.496;2023-06-26T06:12:01;6.45;;;5.22;;
351;SDS011;164;50.784;6.496;2023-06-26T06:14:29;7.72;;;5.20;;
351;SDS011;164;50.784;6.496;2023-06-26T06:16:57;6.45;;;5.65;;
351;SDS011;164;50.784;6.496;2023-06-26T06:19:24;6.60;;;5.85;;
351;SDS011;164;50.784;6.496;2023-06-26T06:21:53;8.45;;;6.03;;
351;SDS011;164;50.784;6.496;2023-06-26T06:24:20;9.10;;;6.80;;
351;SDS011;164;50.784;6.496;2023-06-26T06:26:47;6.18;;;5.88;;
351;SDS011;164;50.784;6.496;2023-06-26T06:29:14;8.38;;;6.45;;
351;SDS011;164;50.784;6.496;2023-06-26T06:31:44;7.88;;;6.70;;
351;SDS011;164;50.784;6.496;2023-06-26T06:34:11;6.55;;;5.40;;
351;SDS011;164;50.784;6.496;2023-06-26T06:36:39;9.95;;;6.53;;
351;SDS011;164;50.784;6.496;2023-06-26T06:39:07;9.88;;;6.55;;
351;SDS011;164;50.784;6.496;2023-06-26T06:41:34;10.32;;;6.97;;
351;SDS011;164;50.784;6.496;2023-06-26T06:44:02;6.93;;;6.47;;
351;SDS011;164;50.784;6.496;2023-06-26T06:46:29;7.07;;;6.00;;
351;SDS011;164;50.784;6.496;2023-06-26T06:48:56;9.75;;;6.68;;
351;SDS011;164;50.784;6.496;2023-06-26T06:51:26;8.30;;;5.43;;
351;SDS011;164;50.784;6.496;2023-06-26T06:53:54;7.07;;;5.82;;
351;SDS011;164;50.784;6.496;2023-06-26T06:56:22;7.55;;;6.72;;
351;SDS011;164;50.784;6.496;2023-06-26T06:58:50;8.23;;;5.68;;
351;SDS011;164;50.784;6.496;2023-06-26T07:01:18;10.00;;;6.50;;
351;SDS011;164;50.784;6.496;2023-06-26T07:03:45;6.45;;;5.35;;
351;SDS011;164;50.784;6.496;2023-06-26T07:06:13;9.63;;;6.60;;
351;SDS011;164;50.784;6.496;2023-06-26T07:08:40;7.93;;;6.10;;
351;SDS011;164;50.784;6.496;2023-06-26T07:11:07;7.55;;;6.00;;
351;SDS011;164;50.784;6.496;2023-06-26T07:13:36;7.97;;;6.07;;
351;SDS011;164;50.784;6.496;2023-06-26T07:16:04;10.48;;;6.55;;
351;SDS011;164;50.784;6.496;2023-06-26T07:18:31;6.93;;;5.50;;
351;SDS011;164;50.784;6.496;2023-06-26T07:20:58;9.43;;;6.00;;
351;SDS011;164;50.784;6.496;2023-06-26T07:23:25;5.75;;;5.38;;
351;SDS011;164;50.784;6.496;2023-06-26T07:25:53;6.65;;;6.00;;
351;SDS011;164;50.784;6.496;2023-06-26T07:28:20;8.35;;;6.75;;
351;SDS011;164;50.784;6.496;2023-06-26T07:30:49;10.88;;;6.43;;
351;SDS011;164;50.784;6.496;2023-06-26T07:33:16;7.88;;;5.85;;
351;SDS011;164;50.784;6.496;2023-06-26T07:35:45;8.10;;;5.22;;
351;SDS011;164;50.784;6.496;2023-06-26T07:38:13;6.45;;;5.15;;
351;SDS011;164;50.784;6.496;2023-06-26T07:40:40;7.32;;;6.00;;
351;SDS011;164;50.784;6.496;2023-06-26T07:43:07;8.43;;;5.10;;
351;SDS011;164;50.784;6.496;2023-06-26T07:45:34;9.50;;;5.10;;
351;SDS011;164;50.784;6.496;2023-06-26T07:48:03;5.40;;;4.90;;
351;SDS011;164;50.784;6.496;2023-06-26T07:50:31;9.73;;;4.57;;
351;SDS011;164;50.784;6.496;2023-06-26T07:52:58;6.82;;;4.60;;
351;SDS011;164;50.784;6.496;2023-06-26T07:55:25;6.70;;;4.35;;
351;SDS011;164;50.784;6.496;2023-06-26T07:57:52;5.93;;;4.10;;
351;SDS011;164;50.784;6.496;2023-06-26T08:00:20;9.13;;;5.03;;
351;SDS011;164;50.784;6.496;2023-06-26T08:02:47;7.97;;;4.47;;
351;SDS011;164;50.784;6.496;2023-06-26T08:05:16;6.78;;;3.80;;
351;SDS011;164;50.784;6.496;2023-06-26T08:07:43;9.85;;;5.25;;
351;SDS011;164;50.784;6.496;2023-06-26T08:10:11;4.57;;;3.95;;
351;SDS011;164;50.784;6.496;2023-06-26T08:12:38;12.13;;;4.80;;
351;SDS011;164;50.784;6.496;2023-06-26T08:15:08;9.27;;;4.93;;
351;SDS011;164;50.784;6.496;2023-06-26T08:17:35;9.07;;;4.55;;
351;SDS011;164;50.784;6.496;2023-06-26T08:20:02;8.75;;;4.65;;
351;SDS011;164;50.784;6.496;2023-06-26T08:22:34;4.88;;;3.88;;
351;SDS011;164;50.784;6.496;2023-06-26T08:25:02;7.45;;;4.95;;
351;SDS011;164;50.784;6.496;2023-06-26T08:27:30;7.78;;;4.15;;
351;SDS011;164;50.784;6.496;2023-06-26T08:29:58;6.60;;;3.58;;
351;SDS011;164;50.784;6.496;2023-06-26T08:32:25;8.13;;;3.97;;
351;SDS011;164;50.784;6.496;2023-06-26T08:34:52;10.18;;;4.72;;
351;SDS011;164;50.784;6.496;2023-06-26T08:37:20;6.55;;;4.38;;
351;SDS011;164;50.784;6.496;2023-06-26T08:39:48;7.07;;;3.60;;
351;SDS011;164;50.784;6.496;2023-06-26T08:42:16;7.22;;;3.90;;
351;SDS011;164;50.784;6.496;2023-06-26T08:44:43;3.83;;;3.30;;
351;SDS011;164;50.784;6.496;2023-06-26T08:47:11;6.03;;;3.58;;
351;SDS011;164;50.784;6.496;2023-06-26T08:49:42;8.30;;;3.67;;
351;SDS011;164;50.784;6.496;2023-06-26T08:52:13;4.15;;;2.90;;
351;SDS011;164;50.784;6.496;2023-06-26T08:54:42;4.03;;;2.78;;
351;SDS011;164;50.784;6.496;2023-06-26T08:57:12;4.43;;;2.95;;
351;SDS011;164;50.784;6.496;2023-06-26T08:59:41;6.18;;;3.55;;
351;SDS011;164;50.784;6.496;2023-06-26T09:02:08;4.80;;;2.90;;
351;SDS011;164;50.784;6.496;2023-06-26T09:04:35;5.18;;;3.40;;
351;SDS011;164;50.784;6.496;2023-06-26T09:07:04;6.93;;;3.83;;
351;SDS011;164;50.784;6.496;2023-06-26T09:09:31;5.85;;;3.05;;
351;SDS011;164;50.784;6.496;2023-06-26T09:11:58;6.75;;;2.72;;
351;SDS011;164;50.784;6.496;2023-06-26T09:14:27;5.63;;;3.10;;
351;SDS011;164;50.784;6.496;2023-06-26T09:16:55;7.10;;;3.40;;
351;SDS011;164;50.784;6.496;2023-06-26T09:19:23;6.47;;;3.42;;
351;SDS011;164;50.784;6.496;2023-06-26T09:21:50;6.35;;;2.50;;
351;SDS011;164;50.784;6.496;2023-06-26T09:24:19;4.50;;;3.00;;
351;SDS011;164;50.784;6.496;2023-06-26T09:26:46;6.60;;;3.30;;
351;SDS011;164;50.784;6.496;2023-06-26T09:29:14;7.35;;;3.42;;
351;SDS011;164;50.784;6.496;2023-06-26T09:31:43;3.85;;;2.15;;
351;SDS011;164;50.784;6.496;2023-06-26T09:34:11;5.90;;;3.10;;
351;SDS011;164;50.784;6.496;2023-06-26T09:36:38;4.22;;;2.72;;
351;SDS011;164;50.784;6.496;2023-06-26T09:39:07;5.10;;;2.90;;
351;SDS011;164;50.784;6.496;2023-06-26T09:41:36;4.65;;;2.90;;
351;SDS011;164;50.784;6.496;2023-06-26T09:44:05;6.25;;;2.58;;
351;SDS011;164;50.784;6.496;2023-06-26T09:46:32;4.30;;;2.53;;
351;SDS011;164;50.784;6.496;2023-06-26T09:49:05;4.38;;;2.50;;
351;SDS011;164;50.784;6.496;2023-06-26T09:51:33;3.92;;;2.40;;
351;SDS011;164;50.784;6.496;2023-06-26T09:54:01;6.25;;;3.33;;
351;SDS011;164;50.784;6.496;2023-06-26T09:56:29;6.20;;;3.10;;
351;SDS011;164;50.784;6.496;2023-06-26T09:58:58;4.65;;;1.90;;
351;SDS011;164;50.784;6.496;2023-06-26T10:01:26;3.20;;;2.25;;
351;SDS011;164;50.784;6.496;2023-06-26T10:03:53;3.00;;;2.65;;
351;SDS011;164;50.784;6.496;2023-06-26T10:06:24;8.82;;;3.28;;
351;SDS011;164;50.784;6.496;2023-06-26T10:08:54;5.55;;;3.10;;
351;SDS011;164;50.784;6.496;2023-06-26T10:11:22;2.90;;;2.13;;
351;SDS011;164;50.784;6.496;2023-06-26T10:13:52;5.63;;;2.40;;
351;SDS011;164;50.784;6.496;2023-06-26T10:16:23;4.43;;;2.42;;
351;SDS011;164;50.784;6.496;2023-06-26T10:18:51;6.88;;;2.40;;
351;SDS011;164;50.784;6.496;2023-06-26T10:21:20;4.32;;;2.10;;
351;SDS011;164;50.784;6.496;2023-06-26T10:23:50;7.13;;;1.88;;
351;SDS011;164;50.784;6.496;2023-06-26T10:26:18;5.68;;;1.50;;
351;SDS011;164;50.784;6.496;2023-06-26T10:28:47;5.00;;;1.80;;
351;SDS011;164;50.784;6.496;2023-06-26T10:31:17;2.72;;;2.08;;
351;SDS011;164;50.784;6.496;2023-06-26T10:33:45;3.90;;;1.88;;
351;SDS011;164;50.784;6.496;2023-06-26T10:36:13;4.55;;;2.30;;
351;SDS011;164;50.784;6.496;2023-06-26T10:38:52;5.88;;;2.45;;
351;SDS011;164;50.784;6.496;2023-06-26T10:41:20;4.57;;;2.33;;
351;SDS011;164;50.784;6.496;2023-06-26T10:43:51;2.72;;;1.80;;
351;SDS011;164;50.784;6.496;2023-06-26T10:46:18;4.50;;;3.00;;
351;SDS011;164;50.784;6.496;2023-06-26T10:48:56;3.78;;;2.00;;
351;SDS011;164;50.784;6.496;2023-06-26T10:51:24;2.83;;;2.30;;
351;SDS011;164;50.784;6.496;2023-06-26T10:53:54;5.53;;;2.40;;
351;SDS011;164;50.784;6.496;2023-06-26T10:56:23;3.45;;;1.92;;
351;SDS011;164;50.784;6.496;2023-06-26T10:59:14;5.20;;;2.25;;
351;SDS011;164;50.784;6.496;2023-06-26T11:01:42;4.90;;;2.97;;
351;SDS011;164;50.784;6.496;2023-06-26T11:04:10;5.03;;;1.88;;
351;SDS011;164;50.784;6.496;2023-06-26T11:06:39;4.28;;;2.08;;
351;SDS011;164;50.784;6.496;2023-06-26T11:09:08;3.13;;;2.35;;
351;SDS011;164;50.784;6.496;2023-06-26T11:11:58;3.38;;;2.20;;
351;SDS011;164;50.784;6.496;2023-06-26T11:14:30;4.18;;;2.00;;
351;SDS011;164;50.784;6.496;2023-06-26T11:16:58;4.45;;;1.67;;
351;SDS011;164;50.784;6.496;2023-06-26T11:19:26;1.83;;;1.75;;
351;SDS011;164;50.784;6.496;2023-06-26T11:22:04;2.58;;;1.42;;
351;SDS011;164;50.784;6.496;2023-06-26T11:24:33;4.03;;;1.48;;
351;SDS011;164;50.784;6.496;2023-06-26T11:27:00;5.30;;;2.08;;
351;SDS011;164;50.784;6.496;2023-06-26T11:29:28;3.40;;;1.80;;
351;SDS011;164;50.784;6.496;2023-06-26T11:31:59;5.28;;;2.20;;
351;SDS011;164;50.784;6.496;2023-06-26T11:34:29;4.93;;;2.40;;
351;SDS011;164;50.784;6.496;2023-06-26T11:36:57;5.45;;;2.47;;
351;SDS011;164;50.784;6.496;2023-06-26T11:39:26;7.00;;;2.00;;
351;SDS011;164;50.784;6.496;2023-06-26T11:41:55;2.30;;;1.50;;
351;SDS011;164;50.784;6.496;2023-06-26T11:44:23;3.45;;;1.73;;
351;SDS011;164;50.784;6.496;2023-06-26T11:46:53;4.32;;;1.70;;
351;SDS011;164;50.784;6.496;2023-06-26T11:49:22;2.13;;;1.85;;
351;SDS011;164;50.784;6.496;2023-06-26T11:51:51;2.20;;;1.90;;
351;SDS011;164;50.784;6.496;2023-06-26T11:54:28;4.25;;;1.65;;
351;SDS011;164;50.784;6.496;2023-06-26T11:56:58;2.47;;;1.70;;
351;SDS011;164;50.784;6.496;2023-06-26T11:59:35;3.47;;;2.38;;
351;SDS011;164;50.784;6.496;2023-06-26T12:02:06;2.67;;;1.50;;
351;SDS011;164;50.784;6.496;2023-06-26T12:04:34;5.50;;;2.35;;
351;SDS011;164;50.784;6.496;2023-06-26T12:07:03;6.35;;;1.80;;
351;SDS011;164;50.784;6.496;2023-06-26T12:09:33;3.17;;;1.75;;
351;SDS011;164;50.784;6.496;2023-06-26T12:12:02;2.88;;;1.73;;
351;SDS011;164;50.784;6.496;2023-06-26T12:14:29;3.55;;;1.90;;
351;SDS011;164;50.784;6.496;2023-06-26T12:17:03;1.73;;;1.33;;
351;SDS011;164;50.784;6.496;2023-06-26T12:19:31;5.23;;;1.83;;
351;SDS011;164;50.784;6.496;2023-06-26T12:21:58;3.30;;;1.65;;
351;SDS011;164;50.784;6.496;2023-06-26T12:24:26;2.50;;;1.70;;
351;SDS011;164;50.784;6.496;2023-06-26T12:26:54;2.67;;;1.47;;
351;SDS011;164;50.784;6.496;2023-06-26T12:29:29;6.43;;;1.67;;
351;SDS011;164;50.784;6.496;2023-06-26T12:31:56;2.73;;;1.67;;
351;SDS011;164;50.784;6.496;2023-06-26T12:34:26;2.58;;;1.90;;
351;SDS011;164;50.784;6.496;2023-06-26T12:36:53;4.00;;;1.50;;
351;SDS011;164;50.784;6.496;2023-06-26T12:39:21;2.67;;;1.60;;
351;SDS011;164;50.784;6.496;2023-06-26T12:41:49;2.35;;;1.20;;
351;SDS011;164;50.784;6.496;2023-06-26T12:44:19;3.78;;;1.50;;
351;SDS011;164;50.784;6.496;2023-06-26T12:46:48;2.88;;;1.65;;
351;SDS011;164;50.784;6.496;2023-06-26T12:49:16;4.28;;;1.25;;
351;SDS011;164;50.784;6.496;2023-06-26T12:51:44;3.33;;;1.17;;
351;SDS011;164;50.784;6.496;2023-06-26T12:54:11;2.45;;;1.45;;
351;SDS011;164;50.784;6.496;2023-06-26T12:56:38;6.83;;;1.83;;
351;SDS011;164;50.784;6.496;2023-06-26T12:59:06;2.60;;;1.70;;
351;SDS011;164;50.784;6.496;2023-06-26T13:01:33;3.50;;;1.88;;
351;SDS011;164;50.784;6.496;2023-06-26T13:04:02;3.40;;;2.28;;
351;SDS011;164;50.784;6.496;2023-06-26T13:06:30;3.10;;;1.70;;
351;SDS011;164;50.784;6.496;2023-06-26T13:08:58;2.53;;;1.60;;
351;SDS011;164;50.784;6.496;2023-06-26T13:11:25;3.95;;;2.42;;
351;SDS011;164;50.784;6.496;2023-06-26T13:13:52;1.92;;;1.20;;
351;SDS011;164;50.784;6.496;2023-06-26T13:16:20;2.13;;;1.20;;
351;SDS011;164;50.784;6.496;2023-06-26T13:18:47;3.85;;;1.10;;
351;SDS011;164;50.784;6.496;2023-06-26T13:21:16;2.55;;;1.60;;
351;SDS011;164;50.784;6.496;2023-06-26T13:23:43;3.08;;;1.50;;
351;SDS011;164;50.784;6.496;2023-06-26T13:26:11;2.72;;;1.38;;
351;SDS011;164;50.784;6.496;2023-06-26T13:28:38;2.50;;;1.40;;
351;SDS011;164;50.784;6.496;2023-06-26T13:31:05;4.72;;;1.70;;
351;SDS011;164;50.784;6.496;2023-06-26T13:33:33;2.60;;;1.40;;
351;SDS011;164;50.784;6.496;2023-06-26T13:36:00;2.33;;;1.43;;
351;SDS011;164;50.784;6.496;2023-06-26T13:38:32;2.53;;;1.75;;
351;SDS011;164;50.784;6.496;2023-06-26T13:40:59;3.63;;;1.90;;
351;SDS011;164;50.784;6.496;2023-06-26T13:43:27;1.80;;;1.17;;
351;SDS011;164;50.784;6.496;2023-06-26T13:45:55;1.40;;;1.25;;
351;SDS011;164;50.784;6.496;2023-06-26T13:48:22;5.28;;;2.33;;
351;SDS011;164;50.784;6.496;2023-06-26T13:50:51;5.22;;;1.10;;
351;SDS011;164;50.784;6.496;2023-06-26T13:53:18;2.23;;;1.53;;
351;SDS011;164;50.784;6.496;2023-06-26T13:55:47;2.45;;;1.55;;
351;SDS011;164;50.784;6.496;2023-06-26T13:58:14;3.08;;;1.58;;
351;SDS011;164;50.784;6.496;2023-06-26T14:00:42;2.97;;;1.60;;
351;SDS011;164;50.784;6.496;2023-06-26T14:03:10;2.42;;;1.05;;
351;SDS011;164;50.784;6.496;2023-06-26T14:05:37;3.23;;;1.27;;
351;SDS011;164;50.784;6.496;2023-06-26T14:08:07;2.20;;;1.73;;
351;SDS011;164;50.784;6.496;2023-06-26T14:10:36;2.55;;;1.30;;
351;SDS011;164;50.784;6.496;2023-06-26T14:13:04;2.80;;;1.50;;
351;SDS011;164;50.784;6.496;2023-06-26T14:15:34;3.28;;;2.25;;
351;SDS011;164;50.784;6.496;2023-06-26T14:18:01;1.52;;;1.10;;
351;SDS011;164;50.784;6.496;2023-06-26T14:20:29;5.63;;;1.50;;
351;SDS011;164;50.784;6.496;2023-06-26T14:22:58;6.72;;;2.03;;
351;SDS011;164;50.784;6.496;2023-06-26T14:25:25;5.22;;;1.70;;
351;SDS011;164;50.784;6.496;2023-06-26T14:27:54;2.95;;;2.00;;
351;SDS011;164;50.784;6.496;2023-06-26T14:30:22;3.10;;;1.63;;
351;SDS011;164;50.784;6.496;2023-06-26T14:32:49;2.87;;;1.70;;
351;SDS011;164;50.784;6.496;2023-06-26T14:35:17;2.40;;;1.13;;
351;SDS011;164;50.784;6.496;2023-06-26T14:37:44;2.93;;;1.50;;
351;SDS011;164;50.784;6.496;2023-06-26T14:40:12;2.40;;;1.20;;
351;SDS011;164;50.784;6.496;2023-06-26T14:42:39;5.80;;;1.20;;
351;SDS011;164;50.784;6.496;2023-06-26T14:45:08;2.73;;;1.67;;
351;SDS011;164;50.784;6.496;2023-06-26T14:47:37;1.53;;;1.17;;
351;SDS011;164;50.784;6.496;2023-06-26T14:50:05;2.57;;;1.40;;
351;SDS011;164;50.784;6.496;2023-06-26T14:52:33;7.30;;;2.30;;
351;SDS011;164;50.784;6.496;2023-06-26T14:55:00;3.43;;;1.93;;
351;SDS011;164;50.784;6.496;2023-06-26T14:57:27;3.90;;;1.40;;
351;SDS011;164;50.784;6.496;2023-06-26T14:59:57;3.87;;;1.27;;
351;SDS011;164;50.784;6.496;2023-06-26T15:02:24;1.30;;;1.07;;
351;SDS011;164;50.784;6.496;2023-06-26T15:04:53;2.67;;;1.57;;
351;SDS011;164;50.784;6.496;2023-06-26T15:07:21;3.13;;;1.47;;
351;SDS011;164;50.784;6.496;2023-06-26T15:09:48;2.60;;;1.40;;
351;SDS011;164;50.784;6.496;2023-06-26T15:12:15;3.43;;;2.60;;
351;SDS011;164;50.784;6.496;2023-06-26T15:14:42;2.10;;;1.43;;
351;SDS011;164;50.784;6.496;2023-06-26T15:17:10;1.80;;;1.23;;
351;SDS011;164;50.784;6.496;2023-06-26T15:19:37;3.50;;;1.90;;
351;SDS011;164;50.784;6.496;2023-06-26T15:22:06;2.90;;;1.67;;
351;SDS011;164;50.784;6.496;2023-06-26T15:24:33;2.53;;;1.47;;
351;SDS011;164;50.784;6.496;2023-06-26T15:27:00;2.17;;;1.73;;
351;SDS011;164;50.784;6.496;2023-06-26T15:29:28;3.43;;;1.50;;
351;SDS011;164;50.784;6.496;2023-06-26T15:31:55;3.47;;;1.40;;
351;SDS011;164;50.784;6.496;2023-06-26T15:34:22;2.33;;;1.20;;
351;SDS011;164;50.784;6.496;2023-06-26T15:36:50;2.93;;;1.47;;
351;SDS011;164;50.784;6.496;2023-06-26T15:39:18;2.43;;;1.33;;
351;SDS011;164;50.784;6.496;2023-06-26T15:41:46;2.97;;;1.33;;
351;SDS011;164;50.784;6.496;2023-06-26T15:44:13;3.00;;;1.70;;
351;SDS011;164;50.784;6.496;2023-06-26T15:46:40;7.10;;;1.30;;
351;SDS011;164;50.784;6.496;2023-06-26T15:49:07;5.72;;;2.00;;
351;SDS011;164;50.784;6.496;2023-06-26T15:51:35;4.30;;;1.93;;